Time;durP1;ratioP1;P1;durP2;ratioP2;P2;SDS_P1;SDS_P2;PMS_P1;PMS_P2;Temp;Humidity;BMP_temperature;BMP_pressure;BME280_temperature;BME280_humidity;BME280_pressure;Samples;Min_cycle;Max_cycle;Signal;HPM_P1;HPM_P2
2024/01/29 00:01:17;;;;;;;23.27;9.32;;;10.80;57.30;;;;;;6272553;28;20021;-69
2024/01/29 00:04:18;;;;;;;26.05;8.10;;;10.80;57.40;;;;;;6253079;28;20049;-70
2024/01/29 00:07:19;;;;;;;17.17;8.18;;;10.80;57.40;;;;;;6253124;28;20392;-70
2024/01/29 00:10:22;;;;;;;19.30;8.23;;;10.70;57.30;;;;;;6252096;28;20021;-68
2024/01/29 00:13:23;;;;;;;18.48;7.70;;;10.80;57.40;;;;;;6252294;28;20365;-70
2024/01/29 00:16:24;;;;;;;17.00;7.80;;;10.80;57.40;;;;;;6284919;28;20028;-70
2024/01/29 00:19:25;;;;;;;16.23;8.13;;;10.80;57.40;;;;;;6254334;28;20021;-68
2024/01/29 00:22:27;;;;;;;15.40;7.63;;;10.80;57.30;;;;;;6258338;28;20496;-69
2024/01/29 00:25:28;;;;;;;33.55;8.35;;;10.80;57.20;;;;;;6256111;28;20025;-69
2024/01/29 00:28:29;;;;;;;16.63;7.63;;;10.80;57.20;;;;;;6233646;28;20184;-71
2024/01/29 00:31:29;;;;;;;18.05;7.78;;;10.80;57.20;;;;;;6251316;28;20025;-69
2024/01/29 00:34:31;;;;;;;17.48;7.47;;;10.80;57.40;;;;;;6255317;28;20592;-69
2024/01/29 00:37:32;;;;;;;25.75;8.70;;;10.70;57.30;;;;;;6256440;28;20473;-68
2024/01/29 00:40:33;;;;;;;16.38;8.13;;;10.70;57.30;;;;;;6255712;28;20029;-69
2024/01/29 00:43:34;;;;;;;12.40;7.15;;;10.70;57.40;;;;;;6252755;28;20099;-67
2024/01/29 00:46:38;;;;;;;25.67;7.90;;;10.70;57.60;;;;;;6256727;28;20441;-68
2024/01/29 00:49:39;;;;;;;14.27;7.75;;;10.70;57.70;;;;;;6253387;28;20045;-69
2024/01/29 00:52:41;;;;;;;16.55;6.88;;;10.60;57.70;;;;;;6235257;28;20033;-69
2024/01/29 00:55:45;;;;;;;14.25;7.43;;;10.60;57.90;;;;;;6256539;28;20021;-69
2024/01/29 00:58:46;;;;;;;18.45;7.97;;;10.50;58.00;;;;;;6253912;28;20032;-69
2024/01/29 01:01:47;;;;;;;23.23;8.55;;;10.50;58.10;;;;;;6253584;28;20131;-69
2024/01/29 01:04:48;;;;;;;17.63;7.50;;;10.40;58.20;;;;;;6250504;28;20443;-71
2024/01/29 01:07:49;;;;;;;19.17;7.82;;;10.40;58.30;;;;;;6253757;28;20045;-68
2024/01/29 01:10:50;;;;;;;14.02;7.05;;;10.40;59.00;;;;;;6258830;28;20441;-68
2024/01/29 01:13:53;;;;;;;18.08;8.25;;;10.30;58.50;;;;;;6252498;28;20686;-69
2024/01/29 01:16:58;;;;;;;13.50;7.05;;;10.30;58.70;;;;;;6259167;28;20055;-69
2024/01/29 01:19:58;;;;;;;16.02;6.53;;;10.30;58.80;;;;;;6269013;28;20041;-68
2024/01/29 01:23:01;;;;;;;19.85;8.48;;;10.30;58.80;;;;;;6254256;28;20553;-69
2024/01/29 01:26:02;;;;;;;14.32;6.15;;;10.20;58.80;;;;;;6248081;28;20044;-68
2024/01/29 01:29:04;;;;;;;15.48;7.00;;;10.20;58.90;;;;;;6262659;28;20072;-68
2024/01/29 01:32:05;;;;;;;16.52;7.72;;;10.10;58.90;;;;;;6256690;28;20051;-67
2024/01/29 01:35:06;;;;;;;18.80;7.28;;;10.10;58.90;;;;;;6242513;28;20061;-69
2024/01/29 01:38:07;;;;;;;14.52;7.15;;;10.10;59.00;;;;;;6241186;28;20028;-71
2024/01/29 01:41:08;;;;;;;18.50;7.53;;;10.00;59.00;;;;;;6251710;28;20020;-70
2024/01/29 01:44:09;;;;;;;16.30;7.63;;;10.00;59.00;;;;;;6254499;28;20017;-69
2024/01/29 01:47:10;;;;;;;21.95;8.45;;;10.00;59.10;;;;;;6258014;28;20041;-69
2024/01/29 01:50:11;;;;;;;18.60;7.53;;;10.00;59.10;;;;;;6249663;28;20031;-70
2024/01/29 01:53:12;;;;;;;14.27;7.15;;;10.00;59.20;;;;;;6244579;28;20021;-69
2024/01/29 01:56:14;;;;;;;15.40;7.40;;;9.90;59.20;;;;;;6254877;28;20094;-68
2024/01/29 01:59:18;;;;;;;20.08;8.07;;;10.00;59.30;;;;;;6257569;28;20036;-69
2024/01/29 02:02:20;;;;;;;17.15;7.18;;;10.00;59.30;;;;;;6252578;28;20022;-69
2024/01/29 02:05:21;;;;;;;17.75;7.10;;;10.00;59.40;;;;;;6254755;28;20013;-68
2024/01/29 02:08:23;;;;;;;15.60;7.00;;;9.90;59.40;;;;;;6263123;28;20036;-69
2024/01/29 02:11:24;;;;;;;17.98;8.07;;;9.90;59.40;;;;;;6265004;28;20021;-68
2024/01/29 02:14:24;;;;;;;15.52;7.45;;;9.90;59.40;;;;;;6255656;28;20109;-69
2024/01/29 02:17:25;;;;;;;23.75;7.68;;;9.90;59.60;;;;;;6280362;28;20016;-71
2024/01/29 02:20:26;;;;;;;13.73;6.63;;;9.80;59.60;;;;;;6278918;28;20393;-69
2024/01/29 02:23:28;;;;;;;15.68;6.63;;;9.80;59.60;;;;;;6277862;28;20105;-69
2024/01/29 02:26:29;;;;;;;17.55;7.38;;;9.70;59.70;;;;;;6254313;28;20404;-69
2024/01/29 02:29:30;;;;;;;19.17;8.13;;;9.70;59.80;;;;;;6273443;28;21297;-67
2024/01/29 02:32:31;;;;;;;21.02;7.43;;;9.70;59.90;;;;;;6240570;28;20044;-69
2024/01/29 02:35:32;;;;;;;18.98;7.35;;;9.60;60.00;;;;;;6253245;28;20067;-69
2024/01/29 02:38:37;;;;;;;20.55;7.95;;;9.70;60.20;;;;;;6250972;28;20116;-68
2024/01/29 02:41:40;;;;;;;14.25;6.50;;;9.50;60.20;;;;;;6235676;28;20513;-70
2024/01/29 02:44:40;;;;;;;16.15;6.63;;;9.50;60.40;;;;;;6257151;28;20525;-69
2024/01/29 02:47:41;;;;;;;15.13;7.07;;;9.40;60.50;;;;;;6251293;28;20072;-69
2024/01/29 02:50:42;;;;;;;17.73;7.50;;;9.40;60.70;;;;;;6243590;28;20111;-69
2024/01/29 02:53:43;;;;;;;17.13;7.07;;;9.50;60.80;;;;;;6249019;28;20072;-69
2024/01/29 02:56:44;;;;;;;14.00;6.72;;;9.40;60.80;;;;;;6252685;28;20143;-69
2024/01/29 02:59:45;;;;;;;18.35;6.80;;;9.40;60.80;;;;;;6257845;28;20036;-69
2024/01/29 03:02:46;;;;;;;15.70;6.63;;;9.40;60.90;;;;;;6251992;28;20147;-69
2024/01/29 03:05:47;;;;;;;15.55;6.35;;;9.40;61.00;;;;;;6251527;28;20022;-69
2024/01/29 03:08:47;;;;;;;13.80;6.05;;;9.30;61.10;;;;;;6254586;28;20029;-69
2024/01/29 03:11:48;;;;;;;13.02;7.10;;;9.30;61.20;;;;;;6255593;28;20059;-69
2024/01/29 03:14:50;;;;;;;19.52;7.07;;;9.30;61.30;;;;;;6252141;28;20072;-70
2024/01/29 03:17:51;;;;;;;14.40;6.28;;;9.20;61.50;;;;;;6250139;28;20029;-69
2024/01/29 03:20:54;;;;;;;13.93;6.60;;;9.20;61.50;;;;;;6259436;28;20392;-68
2024/01/29 03:23:55;;;;;;;16.00;5.93;;;9.10;61.60;;;;;;6253049;28;20033;-70
2024/01/29 03:26:56;;;;;;;15.07;6.30;;;9.10;61.70;;;;;;6249896;28;20555;-69
2024/01/29 03:29:57;;;;;;;13.52;6.47;;;9.10;61.60;;;;;;6282330;28;20131;-69
2024/01/29 03:32:59;;;;;;;12.82;6.55;;;9.10;61.70;;;;;;6252004;28;20055;-69
2024/01/29 03:36:03;;;;;;;18.08;6.85;;;9.10;61.80;;;;;;6253836;28;20025;-69
2024/01/29 03:39:04;;;;;;;16.48;7.57;;;9.10;62.00;;;;;;6253984;28;20534;-72
2024/01/29 03:42:05;;;;;;;18.38;7.35;;;9.00;61.90;;;;;;6285748;28;20032;-69
2024/01/29 03:45:06;;;;;;;14.63;6.88;;;9.00;62.10;;;;;;6264485;28;20082;-68
2024/01/29 03:48:07;;;;;;;17.77;6.78;;;8.90;62.20;;;;;;6278706;28;20374;-68
2024/01/29 03:51:10;;;;;;;20.80;7.45;;;8.90;62.30;;;;;;6237045;28;20029;-69
2024/01/29 03:54:11;;;;;;;13.38;5.88;;;8.80;62.50;;;;;;6238121;28;20055;-69
2024/01/29 03:57:12;;;;;;;13.45;6.60;;;8.80;62.70;;;;;;6255273;28;20049;-69
2024/01/29 04:00:16;;;;;;;16.05;6.60;;;8.80;62.80;;;;;;6268838;28;20033;-69
2024/01/29 04:03:17;;;;;;;11.45;6.15;;;8.80;62.90;;;;;;6246692;28;20108;-70
2024/01/29 04:06:17;;;;;;;16.30;6.18;;;8.70;62.90;;;;;;6245857;28;20554;-68
2024/01/29 04:09:21;;;;;;;25.15;7.03;;;8.70;63.00;;;;;;6250026;28;20048;-69
2024/01/29 04:12:22;;;;;;;15.60;6.18;;;8.70;63.00;;;;;;6253554;28;20055;-68
2024/01/29 04:15:23;;;;;;;14.05;6.28;;;8.60;63.10;;;;;;6261222;28;20512;-68
2024/01/29 04:18:24;;;;;;;18.90;7.07;;;8.60;63.10;;;;;;6274118;28;20021;-69
2024/01/29 04:21:24;;;;;;;12.32;5.95;;;8.60;63.20;;;;;;6253233;28;20628;-69
2024/01/29 04:24:26;;;;;;;16.05;6.35;;;8.60;63.30;;;;;;6247014;28;20021;-69
2024/01/29 04:27:27;;;;;;;16.63;6.30;;;8.60;63.20;;;;;;6250358;28;20091;-69
2024/01/29 04:30:27;;;;;;;12.88;6.35;;;8.60;63.20;;;;;;6254117;28;20025;-70
2024/01/29 04:33:28;;;;;;;8.63;5.30;;;8.60;63.30;;;;;;6248411;28;20117;-68
2024/01/29 04:36:29;;;;;;;8.70;5.65;;;8.70;63.30;;;;;;6256337;28;20024;-69
2024/01/29 04:39:31;;;;;;;13.18;5.85;;;8.70;63.30;;;;;;6252614;28;20033;-68
2024/01/29 04:42:32;;;;;;;14.60;6.30;;;8.70;63.30;;;;;;6281355;28;20112;-68
2024/01/29 04:45:32;;;;;;;14.68;6.00;;;8.70;63.20;;;;;;6230082;28;20120;-70
2024/01/29 04:48:34;;;;;;;16.90;6.22;;;8.70;63.10;;;;;;6247885;28;20056;-68
2024/01/29 04:51:35;;;;;;;14.60;6.63;;;8.70;63.20;;;;;;6258534;28;20021;-67
2024/01/29 04:54:36;;;;;;;14.88;5.85;;;8.70;63.30;;;;;;6255742;28;20063;-68
2024/01/29 04:57:37;;;;;;;12.45;5.32;;;8.70;63.30;;;;;;6254105;28;20122;-72
2024/01/29 05:00:38;;;;;;;9.23;5.20;;;8.70;63.20;;;;;;6251001;28;20127;-70
2024/01/29 05:03:38;;;;;;;11.05;5.28;;;8.70;63.20;;;;;;6236484;28;20091;-70
2024/01/29 05:06:39;;;;;;;10.55;5.95;;;8.70;63.10;;;;;;6250067;28;20029;-69
2024/01/29 05:09:40;;;;;;;12.30;5.43;;;8.70;63.10;;;;;;6266898;28;20500;-69
2024/01/29 05:12:41;;;;;;;18.65;6.18;;;8.70;62.90;;;;;;6247791;28;20055;-68
2024/01/29 05:15:43;;;;;;;7.57;4.80;;;8.70;62.90;;;;;;6235742;28;20760;-68
2024/01/29 05:18:44;;;;;;;16.88;5.60;;;8.60;63.00;;;;;;6254827;28;20026;-69
2024/01/29 05:21:45;;;;;;;15.65;5.57;;;8.60;63.00;;;;;;6239179;28;20024;-69
2024/01/29 05:24:46;;;;;;;12.77;5.28;;;8.50;63.30;;;;;;6258063;28;20021;-69
2024/01/29 05:27:47;;;;;;;12.40;6.40;;;8.40;63.50;;;;;;6242413;28;20457;-69
2024/01/29 05:30:51;;;;;;;12.05;6.03;;;8.40;63.80;;;;;;6254172;28;20112;-69
2024/01/29 05:33:52;;;;;;;10.38;4.90;;;8.30;64.00;;;;;;6262814;28;20113;-68
2024/01/29 05:36:53;;;;;;;11.82;5.53;;;8.30;64.20;;;;;;6265698;28;20271;-68
2024/01/29 05:39:54;;;;;;;12.48;5.70;;;8.30;64.30;;;;;;6263739;28;20025;-70
2024/01/29 05:42:55;;;;;;;11.98;6.05;;;8.30;64.40;;;;;;6258704;28;20086;-69
2024/01/29 05:45:56;;;;;;;10.57;5.90;;;8.20;64.40;;;;;;6253077;28;20036;-69
2024/01/29 05:48:57;;;;;;;10.40;5.10;;;8.20;64.40;;;;;;6255717;28;20168;-69
2024/01/29 05:51:58;;;;;;;12.70;5.45;;;8.20;64.40;;;;;;6256878;28;20099;-69
2024/01/29 05:54:59;;;;;;;13.02;6.63;;;8.20;64.40;;;;;;6259762;28;20541;-69
2024/01/29 05:58:01;;;;;;;15.18;6.13;;;8.20;64.50;;;;;;6239298;28;20397;-68
2024/01/29 06:01:02;;;;;;;12.02;5.40;;;8.20;64.60;;;;;;6248463;28;20113;-70
2024/01/29 06:04:03;;;;;;;11.18;5.57;;;8.20;64.70;;;;;;6253544;28;20187;-68
2024/01/29 06:07:05;;;;;;;12.95;5.28;;;8.20;64.80;;;;;;6255152;28;20074;-68
2024/01/29 06:10:08;;;;;;;14.15;6.38;;;8.20;64.80;;;;;;6256357;28;20113;-69
2024/01/29 06:13:10;;;;;;;10.95;4.57;;;8.30;64.70;;;;;;6259831;28;20048;-69
2024/01/29 06:16:21;;;;;;;19.08;7.32;;;8.30;64.70;;;;;;6266448;28;20017;-68
2024/01/29 06:19:22;;;;;;;13.13;6.28;;;8.30;64.50;;;;;;6263907;28;20017;-67
2024/01/29 06:22:22;;;;;;;13.45;5.82;;;8.40;64.50;;;;;;6266462;28;21302;-67
2024/01/29 06:25:23;;;;;;;13.13;4.88;;;8.40;64.40;;;;;;6263888;28;20249;-69
2024/01/29 06:28:24;;;;;;;11.57;5.85;;;8.50;64.30;;;;;;6264250;28;20409;-68
2024/01/29 06:31:25;;;;;;;23.13;6.85;;;8.50;64.10;;;;;;6269367;28;20056;-70
2024/01/29 06:34:26;;;;;;;8.57;5.00;;;8.50;64.10;;;;;;6264829;28;20644;-69
2024/01/29 06:37:27;;;;;;;10.95;4.93;;;8.50;64.10;;;;;;6248066;28;20024;-68
2024/01/29 06:40:28;;;;;;;14.77;6.05;;;8.50;64.10;;;;;;6265316;28;20458;-68
2024/01/29 06:43:29;;;;;;;20.35;7.28;;;8.50;64.00;;;;;;6262480;28;20036;-68
2024/01/29 06:46:30;;;;;;;16.52;5.53;;;8.60;64.00;;;;;;6267340;28;20128;-67
2024/01/29 06:49:31;;;;;;;10.43;5.32;;;8.60;63.90;;;;;;6289921;28;20182;-67
2024/01/29 06:52:32;;;;;;;15.85;6.57;;;8.60;63.90;;;;;;6243931;28;20013;-68
2024/01/29 06:55:35;;;;;;;14.98;5.97;;;8.60;63.90;;;;;;6266746;28;21762;-71
2024/01/29 06:58:36;;;;;;;20.23;6.85;;;8.60;64.00;;;;;;6244486;28;20041;-69
2024/01/29 07:01:38;;;;;;;18.58;6.93;;;8.60;63.90;;;;;;6256762;28;20057;-68
2024/01/29 07:04:42;;;;;;;10.95;5.90;;;8.60;63.90;;;;;;6284661;28;20027;-70
2024/01/29 07:07:43;;;;;;;14.40;6.18;;;8.60;63.90;;;;;;6254317;28;20040;-68
2024/01/29 07:10:44;;;;;;;15.65;6.38;;;8.60;63.80;;;;;;6256865;28;20047;-70
2024/01/29 07:13:46;;;;;;;14.38;5.70;;;8.50;63.80;;;;;;6251732;28;20017;-70
2024/01/29 07:16:46;;;;;;;14.27;5.80;;;8.60;63.80;;;;;;6241057;28;20113;-70
2024/01/29 07:19:48;;;;;;;12.52;5.68;;;8.70;63.90;;;;;;6274394;28;20120;-68
2024/01/29 07:22:50;;;;;;;10.95;5.43;;;8.70;63.70;;;;;;6279489;28;20056;-68
2024/01/29 07:25:51;;;;;;;10.88;5.82;;;8.70;63.60;;;;;;6252228;28;20029;-68
2024/01/29 07:28:52;;;;;;;13.13;5.47;;;8.70;63.50;;;;;;6266295;28;20072;-72
2024/01/29 07:31:53;;;;;;;12.07;6.03;;;8.70;63.40;;;;;;6252193;28;20029;-70
2024/01/29 07:34:54;;;;;;;11.70;5.18;;;8.70;63.30;;;;;;6242739;28;20021;-71
2024/01/29 07:37:55;;;;;;;10.25;5.07;;;8.70;63.30;;;;;;6261770;28;20165;-68
2024/01/29 07:40:56;;;;;;;13.00;5.93;;;8.70;63.00;;;;;;6262796;28;20025;-68
2024/01/29 07:43:58;;;;;;;13.18;5.65;;;8.70;62.90;;;;;;6248122;28;20078;-68
2024/01/29 07:46:59;;;;;;;19.08;5.82;;;8.70;62.80;;;;;;6278595;28;20087;-68
2024/01/29 07:50:01;;;;;;;12.57;6.18;;;8.70;62.60;;;;;;6237155;28;20464;-69
2024/01/29 07:53:02;;;;;;;13.00;5.90;;;8.70;62.60;;;;;;6282085;28;20055;-70
2024/01/29 07:56:03;;;;;;;15.52;5.28;;;8.70;62.60;;;;;;6267541;28;20025;-68
2024/01/29 07:59:04;;;;;;;15.93;5.43;;;8.70;62.60;;;;;;6250674;28;20551;-68
2024/01/29 08:02:06;;;;;;;19.88;6.70;;;8.60;62.40;;;;;;6240955;28;20134;-69
2024/01/29 08:05:07;;;;;;;13.18;5.72;;;8.50;62.50;;;;;;6250167;28;20028;-71
2024/01/29 08:08:07;;;;;;;15.95;6.10;;;8.50;63.40;;;;;;6245137;28;20072;-69
2024/01/29 08:11:09;;;;;;;13.77;6.65;;;8.50;62.70;;;;;;6265118;28;20160;-70
2024/01/29 08:14:10;;;;;;;8.02;5.30;;;8.50;62.80;;;;;;6251442;28;20051;-69
2024/01/29 08:17:11;;;;;;;15.85;5.88;;;8.50;62.80;;;;;;6257184;28;20163;-70
2024/01/29 08:20:11;;;;;;;20.00;6.25;;;8.50;62.90;;;;;;6250396;28;20020;-68
2024/01/29 08:23:12;;;;;;;13.23;5.85;;;8.50;63.00;;;;;;6256392;28;20548;-69
2024/01/29 08:26:13;;;;;;;13.75;6.03;;;8.60;63.00;;;;;;6249545;28;20155;-68
2024/01/29 08:29:14;;;;;;;17.15;6.82;;;8.60;63.00;;;;;;6252574;28;20178;-69
2024/01/29 08:32:15;;;;;;;11.40;6.07;;;8.60;62.80;;;;;;6265009;28;20021;-70
2024/01/29 08:35:15;;;;;;;18.02;6.93;;;8.70;62.80;;;;;;6253930;28;20025;-71
2024/01/29 08:38:16;;;;;;;10.15;5.30;;;8.70;62.90;;;;;;6252542;28;20550;-72
2024/01/29 08:41:17;;;;;;;17.77;6.47;;;8.70;62.90;;;;;;6249312;28;20451;-70
2024/01/29 08:44:20;;;;;;;16.25;6.53;;;8.70;62.80;;;;;;6228749;28;20108;-70
2024/01/29 08:47:22;;;;;;;42.80;6.00;;;8.80;62.80;;;;;;6264661;28;20056;-71
2024/01/29 08:50:24;;;;;;;19.63;6.38;;;8.80;62.70;;;;;;6242505;28;20595;-71
2024/01/29 08:53:27;;;;;;;9.85;4.88;;;8.90;62.60;;;;;;6251998;28;20025;-71
2024/01/29 08:56:30;;;;;;;15.52;6.22;;;9.00;62.60;;;;;;6269231;28;20029;-70
2024/01/29 08:59:31;;;;;;;8.70;5.63;;;9.00;62.50;;;;;;6285668;28;20013;-70
2024/01/29 09:02:33;;;;;;;15.80;6.15;;;9.10;62.50;;;;;;6251440;28;20024;-70
2024/01/29 09:05:34;;;;;;;12.02;5.55;;;9.30;62.20;;;;;;6287187;28;20101;-70
2024/01/29 09:08:35;;;;;;;18.38;5.85;;;9.10;61.60;;;;;;6253345;28;20513;-71
2024/01/29 09:11:36;;;;;;;9.63;5.55;;;9.40;61.70;;;;;;6256918;28;20073;-71
2024/01/29 09:14:36;;;;;;;20.23;5.75;;;9.40;61.70;;;;;;6253528;28;20017;-71
2024/01/29 09:17:37;;;;;;;12.50;5.78;;;9.50;61.40;;;;;;6225985;28;20454;-71
2024/01/29 09:20:40;;;;;;;13.90;6.93;;;9.60;61.10;;;;;;6245765;28;20037;-72
2024/01/29 09:23:40;;;;;;;16.75;6.38;;;9.70;60.90;;;;;;6254314;28;20041;-71
2024/01/29 09:26:41;;;;;;;21.17;6.75;;;9.70;60.70;;;;;;6253008;28;20059;-73
2024/01/29 09:29:42;;;;;;;13.60;7.03;;;9.80;60.60;;;;;;6257478;28;20025;-71
2024/01/29 09:32:43;;;;;;;14.00;5.93;;;9.80;60.40;;;;;;6251501;28;20077;-72
2024/01/29 09:35:44;;;;;;;15.35;7.40;;;9.80;60.30;;;;;;6255830;28;20389;-73
2024/01/29 09:38:45;;;;;;;14.20;6.40;;;9.90;60.20;;;;;;6281243;28;20025;-73
2024/01/29 09:41:46;;;;;;;14.77;7.13;;;9.90;60.10;;;;;;6246592;28;20143;-71
2024/01/29 09:44:47;;;;;;;11.90;5.70;;;10.00;59.90;;;;;;6254097;28;20169;-74
2024/01/29 09:47:50;;;;;;;17.45;7.82;;;10.10;59.80;;;;;;6242593;28;20510;-70
2024/01/29 09:50:52;;;;;;;18.10;8.05;;;10.10;59.60;;;;;;6255678;28;20107;-71
2024/01/29 09:53:56;;;;;;;14.35;6.80;;;10.20;59.50;;;;;;6254701;28;20033;-71
2024/01/29 09:56:58;;;;;;;13.13;6.68;;;10.20;59.50;;;;;;6247710;28;20104;-70
2024/01/29 10:00:00;;;;;;;15.45;7.30;;;10.30;59.40;;;;;;6259171;28;20052;-72
2024/01/29 10:03:08;;;;;;;15.43;7.68;;;10.30;59.30;;;;;;6253022;28;20071;-72
2024/01/29 10:06:08;;;;;;;13.70;7.95;;;10.40;59.10;;;;;;6234904;28;20160;-71
2024/01/29 10:09:11;;;;;;;15.00;8.00;;;10.50;58.90;;;;;;6245992;28;20099;-70
2024/01/29 10:12:23;;;;;;;18.23;9.18;;;10.50;58.80;;;;;;6280510;28;20115;-72
2024/01/29 10:15:25;;;;;;;17.80;7.72;;;10.50;58.80;;;;;;6282332;28;20040;-71
2024/01/29 10:18:27;;;;;;;16.45;7.88;;;10.60;58.80;;;;;;6252724;28;20556;-74
2024/01/29 10:21:36;;;;;;;22.70;7.38;;;10.80;58.90;;;;;;6248354;28;20100;-72
2024/01/29 10:24:38;;;;;;;20.02;8.13;;;10.90;58.40;;;;;;6247070;28;20044;-70
2024/01/29 10:27:39;;;;;;;21.23;9.50;;;11.10;58.20;;;;;;6252155;28;20046;-69
2024/01/29 10:30:41;;;;;;;16.98;8.35;;;11.20;57.80;;;;;;6269383;28;20163;-70
2024/01/29 10:33:42;;;;;;;20.95;8.38;;;11.40;57.60;;;;;;6228973;28;20064;-71
2024/01/29 10:36:45;;;;;;;14.77;7.80;;;11.50;57.40;;;;;;6250541;28;20036;-71
2024/01/29 10:39:47;;;;;;;16.77;8.07;;;11.70;57.00;;;;;;6263643;28;20032;-70
2024/01/29 10:42:51;;;;;;;17.25;8.77;;;11.80;56.80;;;;;;6250936;28;20453;-73
2024/01/29 10:45:54;;;;;;;22.98;9.80;;;11.90;56.80;;;;;;6260882;28;20024;-71
2024/01/29 10:48:56;;;;;;;16.90;8.23;;;12.10;57.20;;;;;;6260383;28;20128;-72
2024/01/29 10:52:02;;;;;;;21.48;8.70;;;12.30;56.20;;;;;;6260636;28;20110;-71
2024/01/29 10:55:05;;;;;;;17.15;8.52;;;12.60;56.00;;;;;;6265709;28;20020;-70
2024/01/29 10:58:07;;;;;;;20.15;8.27;;;12.80;55.10;;;;;;6259936;28;20020;-71
2024/01/29 11:01:11;;;;;;;22.40;9.68;;;13.00;54.80;;;;;;6248459;28;20031;-71
2024/01/29 11:04:19;;;;;;;29.77;9.60;;;13.30;54.10;;;;;;6248968;28;20140;-69
2024/01/29 11:07:25;;;;;;;35.70;11.02;;;13.50;53.10;;;;;;6255294;28;20071;-71
2024/01/29 11:10:30;;;;;;;21.63;9.75;;;13.70;53.70;;;;;;6257075;28;20021;-72
2024/01/29 11:13:32;;;;;;;21.25;9.73;;;14.00;52.30;;;;;;6249865;28;20024;-70
2024/01/29 11:16:35;;;;;;;21.20;8.88;;;14.20;51.90;;;;;;6250663;28;20017;-71
2024/01/29 11:19:36;;;;;;;17.55;7.90;;;14.40;51.00;;;;;;6245304;28;20043;-70
2024/01/29 11:22:52;;;;;;;20.77;8.88;;;14.60;50.30;;;;;;6246743;28;20121;-71
2024/01/29 11:25:57;;;;;;;18.02;9.35;;;14.70;49.90;;;;;;6253041;28;20100;-70
2024/01/29 11:29:02;;;;;;;16.67;8.35;;;14.90;49.40;;;;;;6252699;28;20457;-72
2024/01/29 11:32:06;;;;;;;19.05;9.10;;;15.10;48.80;;;;;;6254058;28;20024;-71
2024/01/29 11:35:20;;;;;;;16.48;8.60;;;15.30;48.00;;;;;;6253988;28;20024;-71
2024/01/29 11:38:25;;;;;;;16.83;7.78;;;15.70;47.60;;;;;;6248619;28;20025;-72
2024/01/29 11:41:26;;;;;;;16.60;8.82;;;16.10;46.50;;;;;;6254042;28;20108;-70
2024/01/29 11:44:28;;;;;;;21.08;8.85;;;16.40;45.90;;;;;;6248688;28;20021;-71
2024/01/29 11:47:30;;;;;;;21.90;7.97;;;16.80;45.10;;;;;;6247296;28;20098;-72
2024/01/29 11:50:31;;;;;;;22.00;8.40;;;17.10;44.50;;;;;;6237021;28;20067;-74
2024/01/29 11:53:34;;;;;;;17.30;8.55;;;17.20;44.30;;;;;;6252305;28;20034;-72
2024/01/29 11:56:35;;;;;;;20.85;9.43;;;17.30;44.20;;;;;;6252709;28;20131;-71
2024/01/29 11:59:45;;;;;;;16.73;8.52;;;17.40;43.30;;;;;;6237103;28;20068;-74
2024/01/29 12:02:50;;;;;;;23.55;7.53;;;17.40;42.70;;;;;;6229036;28;20682;-72
2024/01/29 12:05:51;;;;;;;17.65;7.80;;;17.50;42.20;;;;;;6252014;28;20071;-72
2024/01/29 12:08:53;;;;;;;13.55;7.07;;;17.40;42.20;;;;;;6265546;28;20032;-71
2024/01/29 12:11:54;;;;;;;17.67;7.97;;;17.20;42.70;;;;;;6253355;28;20025;-73
2024/01/29 12:14:55;;;;;;;23.00;9.10;;;17.00;43.40;;;;;;6234911;28;20021;-72
2024/01/29 12:17:56;;;;;;;24.35;8.88;;;16.80;43.80;;;;;;6251672;28;20063;-71
2024/01/29 12:20:57;;;;;;;19.52;7.78;;;16.70;44.00;;;;;;6270057;28;20234;-73
2024/01/29 12:23:59;;;;;;;18.95;8.77;;;16.60;44.10;;;;;;6253978;28;20020;-72
2024/01/29 12:27:00;;;;;;;19.95;7.38;;;16.40;44.20;;;;;;6264371;28;20120;-72
2024/01/29 12:30:04;;;;;;;18.85;8.45;;;16.20;44.30;;;;;;6248845;28;20028;-72
2024/01/29 12:33:09;;;;;;;24.90;8.90;;;16.10;44.70;;;;;;6251093;28;20018;-71
2024/01/29 12:36:11;;;;;;;17.27;7.18;;;15.90;45.00;;;;;;6267632;28;20024;-71
2024/01/29 12:39:13;;;;;;;19.20;8.23;;;15.80;44.90;;;;;;6251265;28;20139;-71
2024/01/29 12:42:15;;;;;;;25.38;9.07;;;15.70;44.80;;;;;;6254401;28;20032;-73
2024/01/29 12:45:17;;;;;;;17.30;8.63;;;15.50;44.90;;;;;;6252373;28;20017;-72
2024/01/29 12:48:23;;;;;;;13.05;6.95;;;15.40;45.40;;;;;;6247685;28;20033;-72
2024/01/29 12:51:24;;;;;;;17.05;8.57;;;15.40;45.50;;;;;;6252509;28;20017;-72
2024/01/29 12:54:25;;;;;;;22.42;7.85;;;15.40;45.50;;;;;;6286560;28;20413;-72
2024/01/29 12:57:27;;;;;;;18.38;8.15;;;15.40;45.50;;;;;;6252261;28;20033;-72
2024/01/29 13:00:29;;;;;;;14.23;6.97;;;15.30;45.30;;;;;;6253781;28;20052;-69
2024/01/29 13:03:32;;;;;;;13.05;6.47;;;15.30;45.60;;;;;;6235658;28;20047;-72
2024/01/29 13:06:33;;;;;;;20.70;6.65;;;15.30;45.70;;;;;;6255354;28;20029;-71
2024/01/29 13:09:34;;;;;;;15.43;6.88;;;15.30;45.70;;;;;;6255397;28;20029;-71
2024/01/29 13:12:35;;;;;;;19.08;7.78;;;15.40;45.40;;;;;;6253914;28;20127;-72
2024/01/29 13:15:35;;;;;;;17.60;7.22;;;15.40;45.30;;;;;;6256850;28;20428;-71
2024/01/29 13:18:36;;;;;;;14.00;7.15;;;15.30;45.30;;;;;;6255696;28;20036;-70
2024/01/29 13:21:41;;;;;;;11.20;6.22;;;15.40;45.20;;;;;;6255453;28;20024;-72
2024/01/29 13:24:43;;;;;;;11.35;6.13;;;15.50;44.90;;;;;;6254250;28;20021;-72
2024/01/29 13:27:45;;;;;;;16.00;6.85;;;15.50;44.70;;;;;;6238759;28;20036;-73
2024/01/29 13:30:47;;;;;;;13.60;5.97;;;15.40;44.60;;;;;;6257248;28;20025;-72
2024/01/29 13:33:49;;;;;;;12.70;6.47;;;15.40;44.70;;;;;;6253457;28;20032;-72
2024/01/29 13:36:50;;;;;;;10.40;5.40;;;15.40;44.80;;;;;;6253360;28;20106;-71
2024/01/29 13:39:51;;;;;;;13.98;6.25;;;15.50;44.40;;;;;;6287125;28;20029;-71
2024/01/29 13:42:52;;;;;;;10.30;5.43;;;15.50;44.30;;;;;;6265623;28;20073;-72
2024/01/29 13:45:53;;;;;;;13.63;5.68;;;15.50;44.00;;;;;;6245638;28;20025;-72
2024/01/29 13:48:54;;;;;;;8.95;5.45;;;15.50;44.10;;;;;;6257503;28;20086;-73
2024/01/29 13:51:54;;;;;;;14.90;5.60;;;15.50;43.80;;;;;;6269771;28;20365;-71
2024/01/29 13:54:56;;;;;;;10.73;4.82;;;15.50;43.40;;;;;;6238514;28;20542;-72
2024/01/29 13:57:57;;;;;;;13.68;5.80;;;15.50;43.50;;;;;;6266957;28;20113;-71
2024/01/29 14:00:58;;;;;;;8.73;4.50;;;15.50;43.30;;;;;;6241633;28;20073;-71
2024/01/29 14:03:58;;;;;;;6.68;4.30;;;15.50;43.10;;;;;;6255176;28;20021;-72
2024/01/29 14:07:00;;;;;;;7.72;4.13;;;15.50;42.80;;;;;;6269077;28;20694;-72
2024/01/29 14:10:02;;;;;;;10.30;4.78;;;15.50;42.60;;;;;;6253683;28;20025;-71
2024/01/29 14:13:03;;;;;;;6.22;3.05;;;15.50;42.80;;;;;;6251638;28;20035;-72
2024/01/29 14:16:04;;;;;;;9.15;4.43;;;15.50;42.90;;;;;;6251362;28;20103;-71
2024/01/29 14:19:05;;;;;;;7.60;3.17;;;15.60;43.10;;;;;;6252048;28;20036;-71
2024/01/29 14:22:06;;;;;;;6.50;3.35;;;15.60;42.50;;;;;;6244580;28;20337;-74
2024/01/29 14:25:07;;;;;;;10.68;4.18;;;15.60;42.00;;;;;;6249183;28;20113;-72
2024/01/29 14:28:09;;;;;;;9.48;4.57;;;15.60;42.00;;;;;;6281584;28;20028;-71
2024/01/29 14:31:12;;;;;;;10.73;4.38;;;15.60;42.10;;;;;;6252592;28;20033;-74
2024/01/29 14:34:14;;;;;;;8.52;4.47;;;15.60;41.90;;;;;;6253981;28;20041;-72
2024/01/29 14:37:15;;;;;;;12.60;4.28;;;15.60;42.20;;;;;;6242794;28;20056;-71
2024/01/29 14:40:16;;;;;;;9.68;4.40;;;15.60;42.60;;;;;;6284007;28;20021;-72
2024/01/29 14:43:17;;;;;;;9.20;3.63;;;15.60;41.80;;;;;;6281980;28;20471;-73
2024/01/29 14:46:21;;;;;;;10.43;4.47;;;15.60;41.90;;;;;;6253363;28;20074;-72
2024/01/29 14:49:22;;;;;;;14.63;3.58;;;15.60;41.90;;;;;;6253383;28;20156;-73
2024/01/29 14:52:23;;;;;;;10.32;3.47;;;15.60;41.70;;;;;;6249090;28;20410;-74
2024/01/29 14:55:25;;;;;;;6.10;3.78;;;15.60;41.40;;;;;;6246592;28;20059;-73
2024/01/29 14:58:26;;;;;;;10.80;3.10;;;15.50;41.40;;;;;;6265655;28;20033;-72
2024/01/29 15:01:27;;;;;;;7.05;3.42;;;15.50;41.50;;;;;;6254317;28;20036;-73
2024/01/29 15:04:28;;;;;;;13.93;4.00;;;15.40;41.30;;;;;;6256758;28;20052;-73
2024/01/29 15:07:29;;;;;;;13.45;3.72;;;15.40;41.40;;;;;;6248575;28;20108;-73
2024/01/29 15:10:30;;;;;;;7.07;3.45;;;15.40;41.20;;;;;;6240961;28;20082;-73
2024/01/29 15:13:30;;;;;;;10.50;4.40;;;15.30;41.30;;;;;;6251533;28;20491;-72
2024/01/29 15:16:32;;;;;;;9.10;4.28;;;15.30;41.40;;;;;;6238077;28;20029;-73
2024/01/29 15:19:33;;;;;;;17.63;9.52;;;15.30;41.60;;;;;;6242823;28;20464;-73
2024/01/29 15:22:34;;;;;;;9.95;5.35;;;15.30;41.80;;;;;;6251086;28;20017;-71
2024/01/29 15:25:36;;;;;;;8.40;4.50;;;15.40;42.00;;;;;;6255644;28;20027;-72
2024/01/29 15:28:37;;;;;;;9.93;4.97;;;15.40;42.20;;;;;;6249759;28;20028;-72
2024/01/29 15:31:39;;;;;;;8.43;4.82;;;15.40;42.30;;;;;;6251476;28;20029;-72
2024/01/29 15:34:47;;;;;;;19.25;5.93;;;15.40;42.30;;;;;;6247334;28;20036;-72
2024/01/29 15:37:48;;;;;;;;;;;15.40;42.30;;;;;;6280481;28;20396;-73
2024/01/29 15:40:52;;;;;;;9.98;5.38;;;15.40;42.50;;;;;;6253631;28;19908;-71